sensor_id;sensor_type;location;lat;lon;timestamp;P1;durP1;ratioP1;P2;durP2;ratioP2
11935;SDS011;6027;48.576;9.180;2023-07-13T00:02:21;11.40;;;10.50;;
11935;SDS011;6027;48.576;9.180;2023-07-13T00:04:47;10.75;;;10.07;;
11935;SDS011;6027;48.576;9.180;2023-07-13T00:07:12;9.63;;;9.00;;
11935;SDS011;6027;48.576;9.180;2023-07-13T00:09:39;11.10;;;10.45;;
11935;SDS011;6027;48.576;9.180;2023-07-13T00:12:19;9.10;;;8.48;;
11935;SDS011;6027;48.576;9.180;2023-07-13T00:14:48;9.95;;;9.35;;
11935;SDS011;6027;48.576;9.180;2023-07-13T00:17:14;10.63;;;9.82;;
11935;SDS011;6027;48.576;9.180;2023-07-13T00:19:39;8.70;;;8.18;;
11935;SDS011;6027;48.576;9.180;2023-07-13T00:22:05;8.85;;;8.15;;
11935;SDS011;6027;48.576;9.180;2023-07-13T00:24:31;11.63;;;10.82;;
11935;SDS011;6027;48.576;9.180;2023-07-13T00:26:56;10.15;;;9.45;;
11935;SDS011;6027;48.576;9.180;2023-07-13T00:29:21;9.55;;;8.95;;
11935;SDS011;6027;48.576;9.180;2023-07-13T00:31:47;9.38;;;8.88;;
11935;SDS011;6027;48.576;9.180;2023-07-13T00:34:12;10.98;;;10.38;;
11935;SDS011;6027;48.576;9.180;2023-07-13T00:36:38;11.50;;;10.80;;
11935;SDS011;6027;48.576;9.180;2023-07-13T00:39:03;9.68;;;8.95;;
11935;SDS011;6027;48.576;9.180;2023-07-13T00:41:29;10.45;;;9.77;;
11935;SDS011;6027;48.576;9.180;2023-07-13T00:43:55;9.73;;;9.10;;
11935;SDS011;6027;48.576;9.180;2023-07-13T00:46:27;10.25;;;9.65;;
11935;SDS011;6027;48.576;9.180;2023-07-13T00:48:55;9.48;;;8.65;;
11935;SDS011;6027;48.576;9.180;2023-07-13T00:51:26;9.75;;;9.15;;
11935;SDS011;6027;48.576;9.180;2023-07-13T00:53:56;10.82;;;9.98;;
11935;SDS011;6027;48.576;9.180;2023-07-13T00:56:24;11.00;;;10.30;;
11935;SDS011;6027;48.576;9.180;2023-07-13T00:58:50;9.57;;;8.98;;
11935;SDS011;6027;48.576;9.180;2023-07-13T01:01:17;10.93;;;10.20;;
11935;SDS011;6027;48.576;9.180;2023-07-13T01:03:43;9.95;;;9.30;;
11935;SDS011;6027;48.576;9.180;2023-07-13T01:06:08;9.38;;;8.77;;
11935;SDS011;6027;48.576;9.180;2023-07-13T01:08:34;10.52;;;9.82;;
11935;SDS011;6027;48.576;9.180;2023-07-13T01:10:59;11.10;;;9.40;;
11935;SDS011;6027;48.576;9.180;2023-07-13T01:13:25;10.88;;;10.18;;
11935;SDS011;6027;48.576;9.180;2023-07-13T01:15:51;10.05;;;9.35;;
11935;SDS011;6027;48.576;9.180;2023-07-13T01:18:22;9.32;;;8.77;;
11935;SDS011;6027;48.576;9.180;2023-07-13T01:21:00;9.70;;;8.93;;
11935;SDS011;6027;48.576;9.180;2023-07-13T01:23:28;10.70;;;9.90;;
11935;SDS011;6027;48.576;9.180;2023-07-13T01:25:55;10.15;;;9.55;;
11935;SDS011;6027;48.576;9.180;2023-07-13T01:28:22;11.18;;;9.88;;
11935;SDS011;6027;48.576;9.180;2023-07-13T01:30:48;11.00;;;10.10;;
11935;SDS011;6027;48.576;9.180;2023-07-13T01:33:14;11.82;;;11.13;;
11935;SDS011;6027;48.576;9.180;2023-07-13T01:35:42;11.32;;;10.57;;
11935;SDS011;6027;48.576;9.180;2023-07-13T01:38:09;9.75;;;9.15;;
11935;SDS011;6027;48.576;9.180;2023-07-13T01:40:37;10.13;;;9.23;;
11935;SDS011;6027;48.576;9.180;2023-07-13T01:43:03;8.23;;;7.63;;
11935;SDS011;6027;48.576;9.180;2023-07-13T01:45:29;9.35;;;8.85;;
11935;SDS011;6027;48.576;9.180;2023-07-13T01:47:54;10.10;;;9.40;;
11935;SDS011;6027;48.576;9.180;2023-07-13T01:50:20;9.05;;;8.35;;
11935;SDS011;6027;48.576;9.180;2023-07-13T01:52:45;8.68;;;8.15;;
11935;SDS011;6027;48.576;9.180;2023-07-13T01:55:11;7.55;;;7.05;;
11935;SDS011;6027;48.576;9.180;2023-07-13T01:57:36;8.70;;;8.10;;
11935;SDS011;6027;48.576;9.180;2023-07-13T02:00:06;8.85;;;8.30;;
11935;SDS011;6027;48.576;9.180;2023-07-13T02:02:32;9.98;;;9.27;;
11935;SDS011;6027;48.576;9.180;2023-07-13T02:04:57;9.52;;;8.93;;
11935;SDS011;6027;48.576;9.180;2023-07-13T02:07:23;9.15;;;8.60;;
11935;SDS011;6027;48.576;9.180;2023-07-13T02:09:48;8.90;;;8.43;;
11935;SDS011;6027;48.576;9.180;2023-07-13T02:12:14;10.10;;;9.40;;
11935;SDS011;6027;48.576;9.180;2023-07-13T02:14:39;9.35;;;8.75;;
11935;SDS011;6027;48.576;9.180;2023-07-13T02:17:05;10.20;;;9.32;;
11935;SDS011;6027;48.576;9.180;2023-07-13T02:19:30;10.27;;;9.60;;
11935;SDS011;6027;48.576;9.180;2023-07-13T02:21:56;8.27;;;7.78;;
11935;SDS011;6027;48.576;9.180;2023-07-13T02:24:21;9.50;;;8.95;;
11935;SDS011;6027;48.576;9.180;2023-07-13T02:26:47;9.73;;;8.98;;
11935;SDS011;6027;48.576;9.180;2023-07-13T02:29:13;8.65;;;8.05;;
11935;SDS011;6027;48.576;9.180;2023-07-13T02:31:38;10.55;;;9.77;;
11935;SDS011;6027;48.576;9.180;2023-07-13T02:34:04;9.50;;;8.90;;
11935;SDS011;6027;48.576;9.180;2023-07-13T02:36:29;11.05;;;10.38;;
11935;SDS011;6027;48.576;9.180;2023-07-13T02:38:56;9.30;;;8.60;;
11935;SDS011;6027;48.576;9.180;2023-07-13T02:41:23;9.07;;;8.57;;
11935;SDS011;6027;48.576;9.180;2023-07-13T02:43:48;9.63;;;8.77;;
11935;SDS011;6027;48.576;9.180;2023-07-13T02:46:13;8.75;;;8.25;;
11935;SDS011;6027;48.576;9.180;2023-07-13T02:48:39;10.13;;;9.52;;
11935;SDS011;6027;48.576;9.180;2023-07-13T02:51:05;10.32;;;9.48;;
11935;SDS011;6027;48.576;9.180;2023-07-13T02:53:31;7.68;;;7.18;;
11935;SDS011;6027;48.576;9.180;2023-07-13T02:55:57;9.75;;;9.05;;
11935;SDS011;6027;48.576;9.180;2023-07-13T02:58:23;9.10;;;8.55;;
11935;SDS011;6027;48.576;9.180;2023-07-13T03:00:48;8.48;;;7.88;;
11935;SDS011;6027;48.576;9.180;2023-07-13T03:03:15;11.00;;;10.30;;
11935;SDS011;6027;48.576;9.180;2023-07-13T03:05:41;8.88;;;8.02;;
11935;SDS011;6027;48.576;9.180;2023-07-13T03:08:09;10.10;;;9.30;;
11935;SDS011;6027;48.576;9.180;2023-07-13T03:10:36;8.70;;;8.10;;
11935;SDS011;6027;48.576;9.180;2023-07-13T03:13:02;8.82;;;8.32;;
11935;SDS011;6027;48.576;9.180;2023-07-13T03:15:28;8.90;;;8.20;;
11935;SDS011;6027;48.576;9.180;2023-07-13T03:17:53;7.63;;;7.13;;
11935;SDS011;6027;48.576;9.180;2023-07-13T03:20:19;7.97;;;7.47;;
11935;SDS011;6027;48.576;9.180;2023-07-13T03:22:44;9.02;;;8.00;;
11935;SDS011;6027;48.576;9.180;2023-07-13T03:25:10;9.05;;;8.45;;
11935;SDS011;6027;48.576;9.180;2023-07-13T03:27:36;7.78;;;7.28;;
11935;SDS011;6027;48.576;9.180;2023-07-13T03:30:03;9.85;;;8.93;;
11935;SDS011;6027;48.576;9.180;2023-07-13T03:32:29;7.63;;;7.10;;
11935;SDS011;6027;48.576;9.180;2023-07-13T03:34:55;9.13;;;8.43;;
11935;SDS011;6027;48.576;9.180;2023-07-13T03:37:21;8.95;;;8.43;;
11935;SDS011;6027;48.576;9.180;2023-07-13T03:39:46;10.30;;;9.38;;
11935;SDS011;6027;48.576;9.180;2023-07-13T03:42:12;10.00;;;9.32;;
11935;SDS011;6027;48.576;9.180;2023-07-13T03:44:38;8.77;;;8.18;;
11935;SDS011;6027;48.576;9.180;2023-07-13T03:47:04;9.57;;;8.90;;
11935;SDS011;6027;48.576;9.180;2023-07-13T03:49:31;8.88;;;8.07;;
11935;SDS011;6027;48.576;9.180;2023-07-13T03:51:56;9.15;;;8.30;;
11935;SDS011;6027;48.576;9.180;2023-07-13T03:54:22;9.85;;;8.95;;
11935;SDS011;6027;48.576;9.180;2023-07-13T03:56:48;9.25;;;8.55;;
11935;SDS011;6027;48.576;9.180;2023-07-13T03:59:13;10.07;;;9.43;;
11935;SDS011;6027;48.576;9.180;2023-07-13T04:01:39;10.60;;;9.57;;
11935;SDS011;6027;48.576;9.180;2023-07-13T04:04:04;9.57;;;8.98;;
11935;SDS011;6027;48.576;9.180;2023-07-13T04:06:30;8.70;;;8.20;;
11935;SDS011;6027;48.576;9.180;2023-07-13T04:09:00;8.10;;;7.50;;
11935;SDS011;6027;48.576;9.180;2023-07-13T04:11:28;9.45;;;8.85;;
11935;SDS011;6027;48.576;9.180;2023-07-13T04:13:57;8.93;;;8.25;;
11935;SDS011;6027;48.576;9.180;2023-07-13T04:16:22;8.55;;;7.95;;
11935;SDS011;6027;48.576;9.180;2023-07-13T04:18:49;9.80;;;8.93;;
11935;SDS011;6027;48.576;9.180;2023-07-13T04:21:15;9.95;;;9.25;;
11935;SDS011;6027;48.576;9.180;2023-07-13T04:23:40;7.57;;;7.07;;
11935;SDS011;6027;48.576;9.180;2023-07-13T04:26:06;8.15;;;7.40;;
11935;SDS011;6027;48.576;9.180;2023-07-13T04:28:32;9.57;;;8.75;;
11935;SDS011;6027;48.576;9.180;2023-07-13T04:30:59;7.88;;;7.38;;
11935;SDS011;6027;48.576;9.180;2023-07-13T04:33:25;7.95;;;7.43;;
11935;SDS011;6027;48.576;9.180;2023-07-13T04:35:52;10.00;;;9.27;;
11935;SDS011;6027;48.576;9.180;2023-07-13T04:38:21;7.68;;;7.10;;
11935;SDS011;6027;48.576;9.180;2023-07-13T04:40:47;8.68;;;7.90;;
11935;SDS011;6027;48.576;9.180;2023-07-13T04:43:13;7.85;;;7.15;;
11935;SDS011;6027;48.576;9.180;2023-07-13T04:45:39;8.68;;;7.93;;
11935;SDS011;6027;48.576;9.180;2023-07-13T04:48:04;8.02;;;7.35;;
11935;SDS011;6027;48.576;9.180;2023-07-13T04:50:30;8.27;;;7.70;;
11935;SDS011;6027;48.576;9.180;2023-07-13T04:52:56;7.95;;;7.20;;
11935;SDS011;6027;48.576;9.180;2023-07-13T04:55:21;10.15;;;9.45;;
11935;SDS011;6027;48.576;9.180;2023-07-13T04:57:47;8.95;;;8.15;;
11935;SDS011;6027;48.576;9.180;2023-07-13T05:00:13;9.02;;;8.43;;
11935;SDS011;6027;48.576;9.180;2023-07-13T05:02:41;8.05;;;7.35;;
11935;SDS011;6027;48.576;9.180;2023-07-13T05:05:09;9.82;;;9.23;;
11935;SDS011;6027;48.576;9.180;2023-07-13T05:07:34;10.20;;;9.50;;
11935;SDS011;6027;48.576;9.180;2023-07-13T05:10:00;9.95;;;8.93;;
11935;SDS011;6027;48.576;9.180;2023-07-13T05:12:26;11.40;;;10.18;;
11935;SDS011;6027;48.576;9.180;2023-07-13T05:14:52;9.52;;;8.77;;
11935;SDS011;6027;48.576;9.180;2023-07-13T05:17:17;9.18;;;8.48;;
11935;SDS011;6027;48.576;9.180;2023-07-13T05:19:43;8.10;;;7.40;;
11935;SDS011;6027;48.576;9.180;2023-07-13T05:22:09;9.35;;;8.65;;
11935;SDS011;6027;48.576;9.180;2023-07-13T05:24:34;9.30;;;8.57;;
11935;SDS011;6027;48.576;9.180;2023-07-13T05:26:59;9.15;;;8.32;;
11935;SDS011;6027;48.576;9.180;2023-07-13T05:29:25;8.85;;;7.95;;
11935;SDS011;6027;48.576;9.180;2023-07-13T05:31:50;8.23;;;7.40;;
11935;SDS011;6027;48.576;9.180;2023-07-13T05:34:16;9.15;;;8.45;;
11935;SDS011;6027;48.576;9.180;2023-07-13T05:36:41;9.20;;;8.63;;
11935;SDS011;6027;48.576;9.180;2023-07-13T05:39:07;9.88;;;9.07;;
11935;SDS011;6027;48.576;9.180;2023-07-13T05:41:32;8.80;;;8.25;;
11935;SDS011;6027;48.576;9.180;2023-07-13T05:43:58;8.98;;;8.18;;
11935;SDS011;6027;48.576;9.180;2023-07-13T05:46:24;10.25;;;9.55;;
11935;SDS011;6027;48.576;9.180;2023-07-13T05:48:50;9.13;;;8.30;;
11935;SDS011;6027;48.576;9.180;2023-07-13T05:51:15;8.88;;;8.18;;
11935;SDS011;6027;48.576;9.180;2023-07-13T05:53:41;8.52;;;7.78;;
11935;SDS011;6027;48.576;9.180;2023-07-13T05:56:06;8.88;;;8.18;;
11935;SDS011;6027;48.576;9.180;2023-07-13T05:58:31;9.80;;;9.13;;
11935;SDS011;6027;48.576;9.180;2023-07-13T06:01:15;8.73;;;7.85;;
11935;SDS011;6027;48.576;9.180;2023-07-13T06:03:41;9.45;;;8.85;;
11935;SDS011;6027;48.576;9.180;2023-07-13T06:06:07;9.30;;;8.60;;
11935;SDS011;6027;48.576;9.180;2023-07-13T06:08:35;10.07;;;8.95;;
11935;SDS011;6027;48.576;9.180;2023-07-13T06:11:06;10.05;;;9.25;;
11935;SDS011;6027;48.576;9.180;2023-07-13T06:13:34;9.77;;;9.07;;
11935;SDS011;6027;48.576;9.180;2023-07-13T06:16:00;8.93;;;8.35;;
11935;SDS011;6027;48.576;9.180;2023-07-13T06:18:29;11.13;;;9.98;;
11935;SDS011;6027;48.576;9.180;2023-07-13T06:20:55;10.75;;;9.93;;
11935;SDS011;6027;48.576;9.180;2023-07-13T06:23:22;9.40;;;8.77;;
11935;SDS011;6027;48.576;9.180;2023-07-13T06:25:47;9.23;;;8.43;;
11935;SDS011;6027;48.576;9.180;2023-07-13T06:28:13;10.80;;;9.98;;
11935;SDS011;6027;48.576;9.180;2023-07-13T06:30:38;9.52;;;8.93;;
11935;SDS011;6027;48.576;9.180;2023-07-13T06:33:04;9.38;;;8.77;;
11935;SDS011;6027;48.576;9.180;2023-07-13T06:35:30;10.43;;;9.60;;
11935;SDS011;6027;48.576;9.180;2023-07-13T06:37:55;9.75;;;9.13;;
11935;SDS011;6027;48.576;9.180;2023-07-13T06:40:21;9.48;;;8.68;;
11935;SDS011;6027;48.576;9.180;2023-07-13T06:42:46;8.88;;;8.27;;
11935;SDS011;6027;48.576;9.180;2023-07-13T06:45:11;10.40;;;9.70;;
11935;SDS011;6027;48.576;9.180;2023-07-13T06:47:37;8.63;;;7.88;;
11935;SDS011;6027;48.576;9.180;2023-07-13T06:50:02;9.02;;;8.32;;
11935;SDS011;6027;48.576;9.180;2023-07-13T06:52:28;8.52;;;7.72;;
11935;SDS011;6027;48.576;9.180;2023-07-13T06:54:53;8.50;;;7.78;;
11935;SDS011;6027;48.576;9.180;2023-07-13T06:57:19;8.48;;;7.78;;
11935;SDS011;6027;48.576;9.180;2023-07-13T06:59:44;8.43;;;7.07;;
11935;SDS011;6027;48.576;9.180;2023-07-13T07:02:10;8.63;;;8.07;;
11935;SDS011;6027;48.576;9.180;2023-07-13T07:04:36;7.07;;;6.13;;
11935;SDS011;6027;48.576;9.180;2023-07-13T07:07:01;8.68;;;8.18;;
11935;SDS011;6027;48.576;9.180;2023-07-13T07:09:27;9.25;;;8.55;;
11935;SDS011;6027;48.576;9.180;2023-07-13T07:11:55;9.18;;;8.38;;
11935;SDS011;6027;48.576;9.180;2023-07-13T07:14:20;6.47;;;6.10;;
11935;SDS011;6027;48.576;9.180;2023-07-13T07:16:46;7.47;;;6.97;;
11935;SDS011;6027;48.576;9.180;2023-07-13T07:19:11;7.70;;;7.00;;
11935;SDS011;6027;48.576;9.180;2023-07-13T07:21:36;8.43;;;7.72;;
11935;SDS011;6027;48.576;9.180;2023-07-13T07:24:04;8.35;;;7.85;;
11935;SDS011;6027;48.576;9.180;2023-07-13T07:26:29;7.05;;;6.55;;
11935;SDS011;6027;48.576;9.180;2023-07-13T07:28:55;7.68;;;6.50;;
11935;SDS011;6027;48.576;9.180;2023-07-13T07:31:21;8.57;;;7.88;;
11935;SDS011;6027;48.576;9.180;2023-07-13T07:33:46;7.32;;;6.72;;
11935;SDS011;6027;48.576;9.180;2023-07-13T07:36:12;8.52;;;7.82;;
11935;SDS011;6027;48.576;9.180;2023-07-13T07:38:37;8.18;;;7.63;;
11935;SDS011;6027;48.576;9.180;2023-07-13T07:41:03;7.63;;;6.93;;
11935;SDS011;6027;48.576;9.180;2023-07-13T07:43:30;7.13;;;6.63;;
11935;SDS011;6027;48.576;9.180;2023-07-13T07:45:56;7.63;;;7.13;;
11935;SDS011;6027;48.576;9.180;2023-07-13T07:48:22;6.57;;;6.10;;
11935;SDS011;6027;48.576;9.180;2023-07-13T07:50:48;7.25;;;6.80;;
11935;SDS011;6027;48.576;9.180;2023-07-13T07:53:14;7.95;;;7.45;;
11935;SDS011;6027;48.576;9.180;2023-07-13T07:55:39;8.10;;;7.50;;
11935;SDS011;6027;48.576;9.180;2023-07-13T07:58:05;7.30;;;6.78;;
11935;SDS011;6027;48.576;9.180;2023-07-13T08:00:31;4.53;;;4.22;;
11935;SDS011;6027;48.576;9.180;2023-07-13T08:02:58;7.93;;;6.97;;
11935;SDS011;6027;48.576;9.180;2023-07-13T08:05:24;9.13;;;8.32;;
11935;SDS011;6027;48.576;9.180;2023-07-13T08:07:50;7.30;;;6.60;;
11935;SDS011;6027;48.576;9.180;2023-07-13T08:10:15;8.00;;;7.50;;
11935;SDS011;6027;48.576;9.180;2023-07-13T08:12:41;7.13;;;6.57;;
11935;SDS011;6027;48.576;9.180;2023-07-13T08:15:08;8.80;;;8.20;;
11935;SDS011;6027;48.576;9.180;2023-07-13T08:17:35;8.90;;;7.50;;
11935;SDS011;6027;48.576;9.180;2023-07-13T08:20:00;7.40;;;6.90;;
11935;SDS011;6027;48.576;9.180;2023-07-13T08:22:26;8.68;;;7.72;;
11935;SDS011;6027;48.576;9.180;2023-07-13T08:24:52;7.20;;;6.30;;
11935;SDS011;6027;48.576;9.180;2023-07-13T08:27:24;10.38;;;7.60;;
11935;SDS011;6027;48.576;9.180;2023-07-13T08:29:51;7.28;;;6.60;;
11935;SDS011;6027;48.576;9.180;2023-07-13T08:32:18;6.82;;;6.43;;
11935;SDS011;6027;48.576;9.180;2023-07-13T08:34:45;6.63;;;6.22;;
11935;SDS011;6027;48.576;9.180;2023-07-13T08:37:11;7.47;;;7.00;;
11935;SDS011;6027;48.576;9.180;2023-07-13T08:39:37;7.18;;;6.57;;
11935;SDS011;6027;48.576;9.180;2023-07-13T08:42:07;5.47;;;5.07;;
11935;SDS011;6027;48.576;9.180;2023-07-13T08:44:44;8.02;;;7.30;;
11935;SDS011;6027;48.576;9.180;2023-07-13T08:47:14;7.47;;;6.78;;
11935;SDS011;6027;48.576;9.180;2023-07-13T08:49:42;7.70;;;7.25;;
11935;SDS011;6027;48.576;9.180;2023-07-13T08:52:54;8.20;;;7.50;;
11935;SDS011;6027;48.576;9.180;2023-07-13T08:55:06;8.45;;;7.85;;
11935;SDS011;6027;48.576;9.180;2023-07-13T08:57:59;8.45;;;7.95;;
11935;SDS011;6027;48.576;9.180;2023-07-13T09:00:34;7.90;;;7.22;;
11935;SDS011;6027;48.576;9.180;2023-07-13T09:03:21;8.27;;;7.68;;
11935;SDS011;6027;48.576;9.180;2023-07-13T09:05:54;7.47;;;6.88;;
11935;SDS011;6027;48.576;9.180;2023-07-13T09:11:07;8.27;;;7.57;;
11935;SDS011;6027;48.576;9.180;2023-07-13T09:16:29;6.72;;;6.25;;
11935;SDS011;6027;48.576;9.180;2023-07-13T09:18:56;7.22;;;6.65;;
11935;SDS011;6027;48.576;9.180;2023-07-13T09:21:35;7.72;;;7.22;;
11935;SDS011;6027;48.576;9.180;2023-07-13T09:24:28;8.02;;;7.47;;
11935;SDS011;6027;48.576;9.180;2023-07-13T09:26:55;7.60;;;6.85;;
11935;SDS011;6027;48.576;9.180;2023-07-13T09:29:24;7.40;;;6.80;;
11935;SDS011;6027;48.576;9.180;2023-07-13T09:31:54;7.30;;;6.72;;
11935;SDS011;6027;48.576;9.180;2023-07-13T09:34:23;7.03;;;6.43;;
11935;SDS011;6027;48.576;9.180;2023-07-13T09:36:49;7.00;;;6.43;;
11935;SDS011;6027;48.576;9.180;2023-07-13T09:39:18;8.45;;;7.75;;
11935;SDS011;6027;48.576;9.180;2023-07-13T09:42:00;7.25;;;6.75;;
11935;SDS011;6027;48.576;9.180;2023-07-13T09:44:36;7.15;;;6.63;;
11935;SDS011;6027;48.576;9.180;2023-07-13T09:47:03;7.47;;;6.80;;
11935;SDS011;6027;48.576;9.180;2023-07-13T09:49:41;7.88;;;7.20;;
11935;SDS011;6027;48.576;9.180;2023-07-13T09:52:11;5.97;;;5.57;;
11935;SDS011;6027;48.576;9.180;2023-07-13T09:54:39;6.57;;;5.97;;
11935;SDS011;6027;48.576;9.180;2023-07-13T09:57:15;7.00;;;6.50;;
11935;SDS011;6027;48.576;9.180;2023-07-13T09:59:44;6.43;;;5.90;;
11935;SDS011;6027;48.576;9.180;2023-07-13T10:04:55;6.70;;;6.10;;
11935;SDS011;6027;48.576;9.180;2023-07-13T10:07:23;6.63;;;6.15;;
11935;SDS011;6027;48.576;9.180;2023-07-13T10:09:53;7.25;;;6.65;;
11935;SDS011;6027;48.576;9.180;2023-07-13T10:12:19;7.85;;;7.03;;
11935;SDS011;6027;48.576;9.180;2023-07-13T10:14:45;6.47;;;6.10;;
11935;SDS011;6027;48.576;9.180;2023-07-13T10:17:13;6.35;;;5.90;;
11935;SDS011;6027;48.576;9.180;2023-07-13T10:19:39;6.18;;;5.78;;
11935;SDS011;6027;48.576;9.180;2023-07-13T10:22:20;7.00;;;6.53;;
11935;SDS011;6027;48.576;9.180;2023-07-13T10:24:52;6.88;;;6.47;;
11935;SDS011;6027;48.576;9.180;2023-07-13T10:27:20;7.75;;;7.03;;
11935;SDS011;6027;48.576;9.180;2023-07-13T10:30:13;7.13;;;6.53;;
11935;SDS011;6027;48.576;9.180;2023-07-13T10:32:45;6.47;;;6.07;;
11935;SDS011;6027;48.576;9.180;2023-07-13T10:35:12;7.05;;;6.45;;
11935;SDS011;6027;48.576;9.180;2023-07-13T10:37:51;6.72;;;6.25;;
11935;SDS011;6027;48.576;9.180;2023-07-13T10:40:26;5.72;;;5.43;;
11935;SDS011;6027;48.576;9.180;2023-07-13T10:42:57;6.32;;;5.82;;
11935;SDS011;6027;48.576;9.180;2023-07-13T10:45:33;6.18;;;5.78;;
11935;SDS011;6027;48.576;9.180;2023-07-13T10:48:01;6.35;;;5.85;;
11935;SDS011;6027;48.576;9.180;2023-07-13T10:50:28;6.28;;;5.88;;
11935;SDS011;6027;48.576;9.180;2023-07-13T10:53:01;7.10;;;6.60;;
11935;SDS011;6027;48.576;9.180;2023-07-13T10:58:22;7.32;;;6.68;;
11935;SDS011;6027;48.576;9.180;2023-07-13T11:03:31;7.22;;;6.60;;
11935;SDS011;6027;48.576;9.180;2023-07-13T11:06:17;6.55;;;6.15;;
11935;SDS011;6027;48.576;9.180;2023-07-13T11:08:57;6.60;;;6.10;;
11935;SDS011;6027;48.576;9.180;2023-07-13T11:18:51;7.18;;;6.10;;
11935;SDS011;6027;48.576;9.180;2023-07-13T11:21:41;6.15;;;5.72;;
11935;SDS011;6027;48.576;9.180;2023-07-13T11:30:21;6.75;;;6.25;;
11935;SDS011;6027;48.576;9.180;2023-07-13T11:35:31;7.38;;;6.55;;
11935;SDS011;6027;48.576;9.180;2023-07-13T11:38:00;6.55;;;5.93;;
11935;SDS011;6027;48.576;9.180;2023-07-13T11:40:27;6.75;;;6.07;;
11935;SDS011;6027;48.576;9.180;2023-07-13T11:43:01;7.07;;;6.43;;
11935;SDS011;6027;48.576;9.180;2023-07-13T11:45:27;6.00;;;5.53;;
11935;SDS011;6027;48.576;9.180;2023-07-13T11:47:53;6.45;;;5.88;;
11935;SDS011;6027;48.576;9.180;2023-07-13T11:50:20;6.03;;;5.53;;
11935;SDS011;6027;48.576;9.180;2023-07-13T11:52:48;6.60;;;6.00;;
11935;SDS011;6027;48.576;9.180;2023-07-13T11:55:17;6.22;;;5.72;;
11935;SDS011;6027;48.576;9.180;2023-07-13T11:57:49;7.45;;;6.82;;
11935;SDS011;6027;48.576;9.180;2023-07-13T12:00:17;8.35;;;5.97;;
11935;SDS011;6027;48.576;9.180;2023-07-13T12:02:47;6.38;;;5.88;;
11935;SDS011;6027;48.576;9.180;2023-07-13T12:05:16;6.75;;;5.60;;
11935;SDS011;6027;48.576;9.180;2023-07-13T12:07:44;6.65;;;6.10;;
11935;SDS011;6027;48.576;9.180;2023-07-13T12:12:46;5.95;;;5.32;;
11935;SDS011;6027;48.576;9.180;2023-07-13T12:15:22;8.15;;;6.05;;
11935;SDS011;6027;48.576;9.180;2023-07-13T12:17:51;6.60;;;5.88;;
11935;SDS011;6027;48.576;9.180;2023-07-13T12:20:37;6.68;;;6.15;;
11935;SDS011;6027;48.576;9.180;2023-07-13T12:23:25;6.60;;;6.10;;
11935;SDS011;6027;48.576;9.180;2023-07-13T12:25:54;5.53;;;5.03;;
11935;SDS011;6027;48.576;9.180;2023-07-13T12:29:06;6.03;;;5.55;;
11935;SDS011;6027;48.576;9.180;2023-07-13T12:34:17;5.82;;;5.32;;
11935;SDS011;6027;48.576;9.180;2023-07-13T12:36:56;6.22;;;5.75;;
11935;SDS011;6027;48.576;9.180;2023-07-13T12:39:43;6.32;;;5.72;;
11935;SDS011;6027;48.576;9.180;2023-07-13T12:45:39;6.85;;;5.45;;
11935;SDS011;6027;48.576;9.180;2023-07-13T12:47:53;5.93;;;5.43;;
11935;SDS011;6027;48.576;9.180;2023-07-13T12:50:30;6.35;;;5.90;;
11935;SDS011;6027;48.576;9.180;2023-07-13T12:53:03;5.80;;;5.25;;
11935;SDS011;6027;48.576;9.180;2023-07-13T12:55:37;5.72;;;5.32;;
11935;SDS011;6027;48.576;9.180;2023-07-13T12:58:09;5.90;;;5.50;;
11935;SDS011;6027;48.576;9.180;2023-07-13T13:00:47;6.10;;;5.45;;
11935;SDS011;6027;48.576;9.180;2023-07-13T13:08:40;5.10;;;4.80;;
11935;SDS011;6027;48.576;9.180;2023-07-13T13:11:07;6.47;;;5.75;;
11935;SDS011;6027;48.576;9.180;2023-07-13T13:13:34;6.68;;;6.18;;
11935;SDS011;6027;48.576;9.180;2023-07-13T13:16:08;6.25;;;5.85;;
11935;SDS011;6027;48.576;9.180;2023-07-13T13:18:37;7.03;;;6.55;;
11935;SDS011;6027;48.576;9.180;2023-07-13T13:21:02;7.45;;;6.63;;
11935;SDS011;6027;48.576;9.180;2023-07-13T13:23:28;5.82;;;5.32;;
11935;SDS011;6027;48.576;9.180;2023-07-13T13:25:53;6.47;;;5.97;;
11935;SDS011;6027;48.576;9.180;2023-07-13T13:28:19;7.45;;;6.18;;
11935;SDS011;6027;48.576;9.180;2023-07-13T13:30:46;6.30;;;5.85;;
11935;SDS011;6027;48.576;9.180;2023-07-13T13:33:14;5.75;;;5.25;;
11935;SDS011;6027;48.576;9.180;2023-07-13T13:35:42;5.85;;;5.28;;
11935;SDS011;6027;48.576;9.180;2023-07-13T13:38:19;5.97;;;5.57;;
11935;SDS011;6027;48.576;9.180;2023-07-13T13:40:49;6.13;;;5.72;;
11935;SDS011;6027;48.576;9.180;2023-07-13T13:43:21;6.40;;;5.85;;
11935;SDS011;6027;48.576;9.180;2023-07-13T13:45:51;6.97;;;6.53;;
11935;SDS011;6027;48.576;9.180;2023-07-13T13:48:19;6.45;;;5.95;;
11935;SDS011;6027;48.576;9.180;2023-07-13T13:50:55;7.40;;;6.80;;
11935;SDS011;6027;48.576;9.180;2023-07-13T13:53:21;6.25;;;5.50;;
11935;SDS011;6027;48.576;9.180;2023-07-13T13:55:49;7.15;;;6.45;;
11935;SDS011;6027;48.576;9.180;2023-07-13T13:58:17;7.20;;;6.60;;
11935;SDS011;6027;48.576;9.180;2023-07-13T14:00:42;7.00;;;5.93;;
11935;SDS011;6027;48.576;9.180;2023-07-13T14:03:15;6.78;;;6.18;;
11935;SDS011;6027;48.576;9.180;2023-07-13T14:05:43;5.82;;;5.40;;
11935;SDS011;6027;48.576;9.180;2023-07-13T14:08:13;5.65;;;5.15;;
11935;SDS011;6027;48.576;9.180;2023-07-13T14:10:40;7.05;;;6.50;;
11935;SDS011;6027;48.576;9.180;2023-07-13T14:13:07;6.35;;;5.85;;
11935;SDS011;6027;48.576;9.180;2023-07-13T14:15:59;7.78;;;7.07;;
11935;SDS011;6027;48.576;9.180;2023-07-13T14:18:25;6.30;;;5.90;;
11935;SDS011;6027;48.576;9.180;2023-07-13T14:20:50;6.30;;;5.90;;
11935;SDS011;6027;48.576;9.180;2023-07-13T14:23:17;6.82;;;6.32;;
11935;SDS011;6027;48.576;9.180;2023-07-13T14:25:43;5.85;;;5.45;;
11935;SDS011;6027;48.576;9.180;2023-07-13T14:30:48;6.15;;;5.82;;
11935;SDS011;6027;48.576;9.180;2023-07-13T14:33:14;8.98;;;5.65;;
11935;SDS011;6027;48.576;9.180;2023-07-13T14:35:39;6.30;;;5.80;;
11935;SDS011;6027;48.576;9.180;2023-07-13T14:38:08;6.32;;;5.93;;
11935;SDS011;6027;48.576;9.180;2023-07-13T14:40:36;6.20;;;5.70;;
11935;SDS011;6027;48.576;9.180;2023-07-13T14:43:03;7.00;;;6.50;;
11935;SDS011;6027;48.576;9.180;2023-07-13T14:45:28;6.03;;;5.68;;
11935;SDS011;6027;48.576;9.180;2023-07-13T14:47:56;6.75;;;6.15;;
11935;SDS011;6027;48.576;9.180;2023-07-13T14:50:28;5.95;;;5.45;;
11935;SDS011;6027;48.576;9.180;2023-07-13T14:52:57;6.35;;;5.75;;
11935;SDS011;6027;48.576;9.180;2023-07-13T14:55:22;5.72;;;5.32;;
11935;SDS011;6027;48.576;9.180;2023-07-13T14:57:51;6.50;;;5.80;;
11935;SDS011;6027;48.576;9.180;2023-07-13T15:00:17;9.05;;;6.18;;
11935;SDS011;6027;48.576;9.180;2023-07-13T15:02:46;7.20;;;5.78;;
11935;SDS011;6027;48.576;9.180;2023-07-13T15:05:14;5.60;;;5.20;;
11935;SDS011;6027;48.576;9.180;2023-07-13T15:07:44;7.63;;;5.88;;
11935;SDS011;6027;48.576;9.180;2023-07-13T15:10:17;5.90;;;5.35;;
11935;SDS011;6027;48.576;9.180;2023-07-13T15:12:45;6.18;;;5.60;;
11935;SDS011;6027;48.576;9.180;2023-07-13T15:15:11;5.95;;;5.53;;
11935;SDS011;6027;48.576;9.180;2023-07-13T15:17:38;5.93;;;5.53;;
11935;SDS011;6027;48.576;9.180;2023-07-13T15:20:09;6.25;;;5.72;;
11935;SDS011;6027;48.576;9.180;2023-07-13T15:22:42;6.18;;;5.30;;
11935;SDS011;6027;48.576;9.180;2023-07-13T15:25:17;6.95;;;6.47;;
11935;SDS011;6027;48.576;9.180;2023-07-13T15:27:45;8.35;;;6.75;;
11935;SDS011;6027;48.576;9.180;2023-07-13T15:30:13;7.40;;;6.70;;
11935;SDS011;6027;48.576;9.180;2023-07-13T15:32:40;6.55;;;6.00;;
11935;SDS011;6027;48.576;9.180;2023-07-13T15:35:13;6.43;;;5.85;;
11935;SDS011;6027;48.576;9.180;2023-07-13T15:37:43;7.25;;;6.63;;
11935;SDS011;6027;48.576;9.180;2023-07-13T15:40:10;9.40;;;6.05;;
11935;SDS011;6027;48.576;9.180;2023-07-13T15:42:38;6.85;;;5.20;;
11935;SDS011;6027;48.576;9.180;2023-07-13T15:45:13;9.63;;;5.43;;
11935;SDS011;6027;48.576;9.180;2023-07-13T15:47:41;6.32;;;5.72;;
11935;SDS011;6027;48.576;9.180;2023-07-13T15:50:11;7.50;;;6.88;;
11935;SDS011;6027;48.576;9.180;2023-07-13T15:52:41;6.85;;;6.18;;